sensor_id;sensor_type;location;lat;lon;timestamp;P1;durP1;ratioP1;P2;durP2;ratioP2
4268;SDS011;2148;48.554;7.834;2022-07-29T00:02:20;6.07;;;3.90;;
4268;SDS011;2148;48.554;7.834;2022-07-29T00:04:45;4.53;;;3.40;;
4268;SDS011;2148;48.554;7.834;2022-07-29T00:07:11;5.30;;;3.50;;
4268;SDS011;2148;48.554;7.834;2022-07-29T00:09:36;7.77;;;4.10;;
4268;SDS011;2148;48.554;7.834;2022-07-29T00:12:01;8.93;;;4.03;;
4268;SDS011;2148;48.554;7.834;2022-07-29T00:14:27;6.00;;;3.40;;
4268;SDS011;2148;48.554;7.834;2022-07-29T00:16:53;3.60;;;3.30;;
4268;SDS011;2148;48.554;7.834;2022-07-29T00:19:18;5.90;;;4.00;;
4268;SDS011;2148;48.554;7.834;2022-07-29T00:21:44;5.57;;;4.00;;
4268;SDS011;2148;48.554;7.834;2022-07-29T00:24:09;7.03;;;3.60;;
4268;SDS011;2148;48.554;7.834;2022-07-29T00:26:34;4.57;;;3.80;;
4268;SDS011;2148;48.554;7.834;2022-07-29T00:29:00;5.63;;;3.70;;
4268;SDS011;2148;48.554;7.834;2022-07-29T00:31:27;4.67;;;3.90;;
4268;SDS011;2148;48.554;7.834;2022-07-29T00:33:52;4.80;;;3.80;;
4268;SDS011;2148;48.554;7.834;2022-07-29T00:36:17;6.13;;;4.00;;
4268;SDS011;2148;48.554;7.834;2022-07-29T00:38:43;4.10;;;3.70;;
4268;SDS011;2148;48.554;7.834;2022-07-29T00:41:10;4.67;;;4.00;;
4268;SDS011;2148;48.554;7.834;2022-07-29T00:43:36;7.33;;;4.03;;
4268;SDS011;2148;48.554;7.834;2022-07-29T00:46:01;6.37;;;4.57;;
4268;SDS011;2148;48.554;7.834;2022-07-29T00:48:26;6.40;;;4.10;;
4268;SDS011;2148;48.554;7.834;2022-07-29T00:51:06;4.33;;;3.90;;
4268;SDS011;2148;48.554;7.834;2022-07-29T00:53:32;5.23;;;4.07;;
4268;SDS011;2148;48.554;7.834;2022-07-29T00:55:58;6.50;;;4.23;;
4268;SDS011;2148;48.554;7.834;2022-07-29T00:58:24;6.07;;;4.33;;
4268;SDS011;2148;48.554;7.834;2022-07-29T01:00:49;7.57;;;4.93;;
4268;SDS011;2148;48.554;7.834;2022-07-29T01:03:15;4.60;;;4.20;;
4268;SDS011;2148;48.554;7.834;2022-07-29T01:05:41;5.30;;;4.80;;
4268;SDS011;2148;48.554;7.834;2022-07-29T01:08:07;5.87;;;4.63;;
4268;SDS011;2148;48.554;7.834;2022-07-29T01:10:33;5.67;;;4.30;;
4268;SDS011;2148;48.554;7.834;2022-07-29T01:12:59;5.03;;;4.60;;
4268;SDS011;2148;48.554;7.834;2022-07-29T01:15:26;5.37;;;4.83;;
4268;SDS011;2148;48.554;7.834;2022-07-29T01:17:54;5.73;;;5.23;;
4268;SDS011;2148;48.554;7.834;2022-07-29T01:20:30;5.93;;;5.33;;
4268;SDS011;2148;48.554;7.834;2022-07-29T01:26:04;6.07;;;5.47;;
4268;SDS011;2148;48.554;7.834;2022-07-29T01:28:49;7.00;;;5.50;;
4268;SDS011;2148;48.554;7.834;2022-07-29T01:31:21;6.63;;;5.30;;
4268;SDS011;2148;48.554;7.834;2022-07-29T01:33:53;5.77;;;5.27;;
4268;SDS011;2148;48.554;7.834;2022-07-29T01:36:32;7.40;;;6.23;;
4268;SDS011;2148;48.554;7.834;2022-07-29T01:41:37;5.70;;;5.17;;
4268;SDS011;2148;48.554;7.834;2022-07-29T01:44:12;8.53;;;5.80;;
4268;SDS011;2148;48.554;7.834;2022-07-29T01:46:41;6.20;;;5.60;;
4268;SDS011;2148;48.554;7.834;2022-07-29T01:49:16;5.80;;;5.30;;
4268;SDS011;2148;48.554;7.834;2022-07-29T01:54:46;5.83;;;4.93;;
4268;SDS011;2148;48.554;7.834;2022-07-29T01:57:15;5.80;;;5.30;;
4268;SDS011;2148;48.554;7.834;2022-07-29T01:59:43;5.90;;;5.40;;
4268;SDS011;2148;48.554;7.834;2022-07-29T02:02:10;6.70;;;5.30;;
4268;SDS011;2148;48.554;7.834;2022-07-29T02:04:36;6.53;;;5.87;;
4268;SDS011;2148;48.554;7.834;2022-07-29T02:07:03;6.53;;;5.57;;
4268;SDS011;2148;48.554;7.834;2022-07-29T02:09:30;5.80;;;5.30;;
4268;SDS011;2148;48.554;7.834;2022-07-29T02:11:57;5.93;;;5.50;;
4268;SDS011;2148;48.554;7.834;2022-07-29T02:14:24;6.30;;;5.70;;
4268;SDS011;2148;48.554;7.834;2022-07-29T02:16:51;6.47;;;5.10;;
4268;SDS011;2148;48.554;7.834;2022-07-29T02:19:18;7.07;;;5.40;;
4268;SDS011;2148;48.554;7.834;2022-07-29T02:21:47;6.17;;;5.57;;
4268;SDS011;2148;48.554;7.834;2022-07-29T02:24:12;7.63;;;5.40;;
4268;SDS011;2148;48.554;7.834;2022-07-29T02:26:39;5.97;;;5.47;;
4268;SDS011;2148;48.554;7.834;2022-07-29T02:29:06;6.07;;;5.57;;
4268;SDS011;2148;48.554;7.834;2022-07-29T02:31:33;6.20;;;5.53;;
4268;SDS011;2148;48.554;7.834;2022-07-29T02:34:00;6.13;;;5.53;;
4268;SDS011;2148;48.554;7.834;2022-07-29T02:36:27;6.27;;;5.77;;
4268;SDS011;2148;48.554;7.834;2022-07-29T02:38:53;5.70;;;5.20;;
4268;SDS011;2148;48.554;7.834;2022-07-29T02:41:30;6.40;;;5.60;;
4268;SDS011;2148;48.554;7.834;2022-07-29T02:44:22;6.03;;;5.50;;
4268;SDS011;2148;48.554;7.834;2022-07-29T02:46:50;5.97;;;5.37;;
4268;SDS011;2148;48.554;7.834;2022-07-29T02:49:35;6.67;;;6.07;;
4268;SDS011;2148;48.554;7.834;2022-07-29T02:52:12;6.47;;;5.87;;
4268;SDS011;2148;48.554;7.834;2022-07-29T02:57:32;6.87;;;6.20;;
4268;SDS011;2148;48.554;7.834;2022-07-29T03:00:01;6.80;;;5.90;;
4268;SDS011;2148;48.554;7.834;2022-07-29T03:02:31;6.10;;;5.50;;
4268;SDS011;2148;48.554;7.834;2022-07-29T03:04:58;8.70;;;6.37;;
4268;SDS011;2148;48.554;7.834;2022-07-29T03:07:24;6.73;;;6.13;;
4268;SDS011;2148;48.554;7.834;2022-07-29T03:09:50;7.03;;;6.20;;
4268;SDS011;2148;48.554;7.834;2022-07-29T03:12:15;7.03;;;6.33;;
4268;SDS011;2148;48.554;7.834;2022-07-29T03:14:41;6.93;;;6.20;;
4268;SDS011;2148;48.554;7.834;2022-07-29T03:17:08;8.50;;;6.23;;
4268;SDS011;2148;48.554;7.834;2022-07-29T03:19:34;6.20;;;5.70;;
4268;SDS011;2148;48.554;7.834;2022-07-29T03:22:00;6.33;;;5.83;;
4268;SDS011;2148;48.554;7.834;2022-07-29T03:24:26;10.07;;;6.20;;
4268;SDS011;2148;48.554;7.834;2022-07-29T03:26:59;6.67;;;5.97;;
4268;SDS011;2148;48.554;7.834;2022-07-29T03:29:24;7.47;;;6.60;;
4268;SDS011;2148;48.554;7.834;2022-07-29T03:31:50;7.00;;;6.40;;
4268;SDS011;2148;48.554;7.834;2022-07-29T03:34:15;6.67;;;6.07;;
4268;SDS011;2148;48.554;7.834;2022-07-29T03:36:41;6.50;;;5.90;;
4268;SDS011;2148;48.554;7.834;2022-07-29T03:39:06;7.67;;;6.93;;
4268;SDS011;2148;48.554;7.834;2022-07-29T03:41:32;6.93;;;6.27;;
4268;SDS011;2148;48.554;7.834;2022-07-29T03:43:58;7.27;;;6.40;;
4268;SDS011;2148;48.554;7.834;2022-07-29T03:46:24;6.93;;;6.33;;
4268;SDS011;2148;48.554;7.834;2022-07-29T03:48:53;6.77;;;6.07;;
4268;SDS011;2148;48.554;7.834;2022-07-29T03:51:21;6.90;;;6.30;;
4268;SDS011;2148;48.554;7.834;2022-07-29T03:53:46;7.87;;;6.20;;
4268;SDS011;2148;48.554;7.834;2022-07-29T03:56:11;7.23;;;6.63;;
4268;SDS011;2148;48.554;7.834;2022-07-29T03:58:38;6.97;;;6.00;;
4268;SDS011;2148;48.554;7.834;2022-07-29T04:01:03;6.63;;;6.03;;
4268;SDS011;2148;48.554;7.834;2022-07-29T04:03:28;7.50;;;6.80;;
4268;SDS011;2148;48.554;7.834;2022-07-29T04:05:58;7.33;;;6.40;;
4268;SDS011;2148;48.554;7.834;2022-07-29T04:08:24;7.63;;;6.93;;
4268;SDS011;2148;48.554;7.834;2022-07-29T04:10:49;7.30;;;6.63;;
4268;SDS011;2148;48.554;7.834;2022-07-29T04:13:16;7.30;;;6.60;;
4268;SDS011;2148;48.554;7.834;2022-07-29T04:15:42;7.00;;;6.30;;
4268;SDS011;2148;48.554;7.834;2022-07-29T04:18:07;6.90;;;6.40;;
4268;SDS011;2148;48.554;7.834;2022-07-29T04:20:32;6.77;;;6.20;;
4268;SDS011;2148;48.554;7.834;2022-07-29T04:22:57;7.30;;;6.60;;
4268;SDS011;2148;48.554;7.834;2022-07-29T04:25:23;7.87;;;7.17;;
4268;SDS011;2148;48.554;7.834;2022-07-29T04:27:48;7.27;;;6.53;;
4268;SDS011;2148;48.554;7.834;2022-07-29T04:30:25;7.53;;;6.53;;
4268;SDS011;2148;48.554;7.834;2022-07-29T04:32:51;7.17;;;6.47;;
4268;SDS011;2148;48.554;7.834;2022-07-29T04:35:16;6.90;;;6.40;;
4268;SDS011;2148;48.554;7.834;2022-07-29T04:37:42;6.70;;;6.00;;
4268;SDS011;2148;48.554;7.834;2022-07-29T04:40:07;7.17;;;6.57;;
4268;SDS011;2148;48.554;7.834;2022-07-29T04:42:33;8.23;;;6.90;;
4268;SDS011;2148;48.554;7.834;2022-07-29T04:44:58;6.23;;;5.70;;
4268;SDS011;2148;48.554;7.834;2022-07-29T04:47:23;6.80;;;6.20;;
4268;SDS011;2148;48.554;7.834;2022-07-29T04:49:48;6.53;;;6.03;;
4268;SDS011;2148;48.554;7.834;2022-07-29T04:52:13;6.80;;;6.07;;
4268;SDS011;2148;48.554;7.834;2022-07-29T04:54:39;6.80;;;6.17;;
4268;SDS011;2148;48.554;7.834;2022-07-29T04:57:04;7.53;;;6.13;;
4268;SDS011;2148;48.554;7.834;2022-07-29T04:59:29;7.27;;;6.23;;
4268;SDS011;2148;48.554;7.834;2022-07-29T05:01:54;6.87;;;6.20;;
4268;SDS011;2148;48.554;7.834;2022-07-29T05:04:20;10.07;;;6.93;;
4268;SDS011;2148;48.554;7.834;2022-07-29T05:06:45;7.40;;;6.70;;
4268;SDS011;2148;48.554;7.834;2022-07-29T05:09:10;8.87;;;6.60;;
4268;SDS011;2148;48.554;7.834;2022-07-29T05:11:35;7.30;;;6.60;;
4268;SDS011;2148;48.554;7.834;2022-07-29T05:14:00;7.07;;;6.30;;
4268;SDS011;2148;48.554;7.834;2022-07-29T05:16:26;7.90;;;6.87;;
4268;SDS011;2148;48.554;7.834;2022-07-29T05:18:51;7.20;;;6.53;;
4268;SDS011;2148;48.554;7.834;2022-07-29T05:21:16;7.43;;;6.70;;
4268;SDS011;2148;48.554;7.834;2022-07-29T05:23:42;7.03;;;6.20;;
4268;SDS011;2148;48.554;7.834;2022-07-29T05:26:07;6.77;;;5.97;;
4268;SDS011;2148;48.554;7.834;2022-07-29T05:28:33;7.57;;;5.83;;
4268;SDS011;2148;48.554;7.834;2022-07-29T05:30:59;6.93;;;6.17;;
4268;SDS011;2148;48.554;7.834;2022-07-29T05:33:25;10.87;;;6.60;;
4268;SDS011;2148;48.554;7.834;2022-07-29T05:35:50;6.60;;;6.10;;
4268;SDS011;2148;48.554;7.834;2022-07-29T05:38:16;6.37;;;5.80;;
4268;SDS011;2148;48.554;7.834;2022-07-29T05:40:41;7.63;;;6.37;;
4268;SDS011;2148;48.554;7.834;2022-07-29T05:43:06;7.13;;;5.73;;
4268;SDS011;2148;48.554;7.834;2022-07-29T05:45:31;8.33;;;6.30;;
4268;SDS011;2148;48.554;7.834;2022-07-29T05:47:57;7.80;;;6.33;;
4268;SDS011;2148;48.554;7.834;2022-07-29T05:50:22;8.47;;;6.50;;
4268;SDS011;2148;48.554;7.834;2022-07-29T05:52:47;7.10;;;6.50;;
4268;SDS011;2148;48.554;7.834;2022-07-29T05:55:12;6.13;;;5.63;;
4268;SDS011;2148;48.554;7.834;2022-07-29T05:57:38;6.70;;;6.07;;
4268;SDS011;2148;48.554;7.834;2022-07-29T06:00:03;6.20;;;5.70;;
4268;SDS011;2148;48.554;7.834;2022-07-29T06:02:29;7.10;;;6.43;;
4268;SDS011;2148;48.554;7.834;2022-07-29T06:04:54;7.13;;;6.43;;
4268;SDS011;2148;48.554;7.834;2022-07-29T06:07:19;6.53;;;5.93;;
4268;SDS011;2148;48.554;7.834;2022-07-29T06:09:45;7.13;;;5.60;;
4268;SDS011;2148;48.554;7.834;2022-07-29T06:12:10;7.17;;;6.53;;
4268;SDS011;2148;48.554;7.834;2022-07-29T06:14:36;9.33;;;7.57;;
4268;SDS011;2148;48.554;7.834;2022-07-29T06:17:02;6.53;;;5.93;;
4268;SDS011;2148;48.554;7.834;2022-07-29T06:19:28;6.10;;;5.50;;
4268;SDS011;2148;48.554;7.834;2022-07-29T06:21:53;6.57;;;5.97;;
4268;SDS011;2148;48.554;7.834;2022-07-29T06:24:19;6.33;;;5.83;;
4268;SDS011;2148;48.554;7.834;2022-07-29T06:26:44;7.20;;;5.63;;
4268;SDS011;2148;48.554;7.834;2022-07-29T06:29:09;10.53;;;6.00;;
4268;SDS011;2148;48.554;7.834;2022-07-29T06:31:35;6.40;;;5.70;;
4268;SDS011;2148;48.554;7.834;2022-07-29T06:34:01;7.43;;;6.13;;
4268;SDS011;2148;48.554;7.834;2022-07-29T06:36:26;6.43;;;5.77;;
4268;SDS011;2148;48.554;7.834;2022-07-29T06:38:51;6.40;;;5.83;;
4268;SDS011;2148;48.554;7.834;2022-07-29T06:41:16;6.20;;;5.70;;
4268;SDS011;2148;48.554;7.834;2022-07-29T06:43:42;5.83;;;5.27;;
4268;SDS011;2148;48.554;7.834;2022-07-29T06:46:09;5.47;;;5.03;;
4268;SDS011;2148;48.554;7.834;2022-07-29T06:48:36;5.27;;;4.40;;
4268;SDS011;2148;48.554;7.834;2022-07-29T06:51:02;5.03;;;4.10;;
4268;SDS011;2148;48.554;7.834;2022-07-29T06:53:28;6.40;;;4.40;;
4268;SDS011;2148;48.554;7.834;2022-07-29T06:55:53;5.00;;;4.50;;
4268;SDS011;2148;48.554;7.834;2022-07-29T06:58:19;4.80;;;4.40;;
4268;SDS011;2148;48.554;7.834;2022-07-29T07:00:45;5.27;;;4.50;;
4268;SDS011;2148;48.554;7.834;2022-07-29T07:03:12;4.87;;;4.23;;
4268;SDS011;2148;48.554;7.834;2022-07-29T07:05:38;5.47;;;3.83;;
4268;SDS011;2148;48.554;7.834;2022-07-29T07:08:03;5.10;;;4.40;;
4268;SDS011;2148;48.554;7.834;2022-07-29T07:10:29;4.97;;;4.47;;
4268;SDS011;2148;48.554;7.834;2022-07-29T07:12:54;4.83;;;4.33;;
4268;SDS011;2148;48.554;7.834;2022-07-29T07:15:20;5.30;;;4.33;;
4268;SDS011;2148;48.554;7.834;2022-07-29T07:17:47;6.10;;;4.47;;
4268;SDS011;2148;48.554;7.834;2022-07-29T07:20:13;4.73;;;4.33;;
4268;SDS011;2148;48.554;7.834;2022-07-29T07:22:39;5.00;;;4.50;;
4268;SDS011;2148;48.554;7.834;2022-07-29T07:25:04;5.97;;;4.20;;
4268;SDS011;2148;48.554;7.834;2022-07-29T07:27:30;4.53;;;4.13;;
4268;SDS011;2148;48.554;7.834;2022-07-29T07:29:55;6.70;;;4.00;;
4268;SDS011;2148;48.554;7.834;2022-07-29T07:32:20;6.37;;;4.37;;
4268;SDS011;2148;48.554;7.834;2022-07-29T07:34:45;4.30;;;3.87;;
4268;SDS011;2148;48.554;7.834;2022-07-29T07:37:10;3.97;;;3.57;;
4268;SDS011;2148;48.554;7.834;2022-07-29T07:39:36;6.60;;;4.40;;
4268;SDS011;2148;48.554;7.834;2022-07-29T07:42:01;8.37;;;4.77;;
4268;SDS011;2148;48.554;7.834;2022-07-29T07:44:26;6.47;;;4.20;;
4268;SDS011;2148;48.554;7.834;2022-07-29T07:46:51;8.00;;;4.83;;
4268;SDS011;2148;48.554;7.834;2022-07-29T07:49:17;5.30;;;4.80;;
4268;SDS011;2148;48.554;7.834;2022-07-29T07:51:42;7.17;;;5.20;;
4268;SDS011;2148;48.554;7.834;2022-07-29T07:54:08;6.93;;;4.57;;
4268;SDS011;2148;48.554;7.834;2022-07-29T07:56:33;5.93;;;4.53;;
4268;SDS011;2148;48.554;7.834;2022-07-29T07:58:58;5.90;;;4.33;;
4268;SDS011;2148;48.554;7.834;2022-07-29T08:01:23;7.13;;;4.97;;
4268;SDS011;2148;48.554;7.834;2022-07-29T08:03:49;5.13;;;4.57;;
4268;SDS011;2148;48.554;7.834;2022-07-29T08:06:15;7.37;;;5.17;;
4268;SDS011;2148;48.554;7.834;2022-07-29T08:08:40;5.63;;;4.50;;
4268;SDS011;2148;48.554;7.834;2022-07-29T08:11:05;5.63;;;4.50;;
4268;SDS011;2148;48.554;7.834;2022-07-29T08:13:31;6.27;;;4.90;;
4268;SDS011;2148;48.554;7.834;2022-07-29T08:15:57;5.97;;;5.37;;
4268;SDS011;2148;48.554;7.834;2022-07-29T08:18:24;6.33;;;4.60;;
4268;SDS011;2148;48.554;7.834;2022-07-29T08:20:49;5.33;;;4.33;;
4268;SDS011;2148;48.554;7.834;2022-07-29T08:23:15;6.17;;;4.63;;
4268;SDS011;2148;48.554;7.834;2022-07-29T08:25:40;5.07;;;4.50;;
4268;SDS011;2148;48.554;7.834;2022-07-29T08:28:06;5.40;;;4.50;;
4268;SDS011;2148;48.554;7.834;2022-07-29T08:30:32;5.30;;;4.03;;
4268;SDS011;2148;48.554;7.834;2022-07-29T08:32:57;7.70;;;4.70;;
4268;SDS011;2148;48.554;7.834;2022-07-29T08:35:23;6.93;;;4.60;;
4268;SDS011;2148;48.554;7.834;2022-07-29T08:37:49;8.67;;;4.17;;
4268;SDS011;2148;48.554;7.834;2022-07-29T08:40:14;5.73;;;4.43;;
4268;SDS011;2148;48.554;7.834;2022-07-29T08:42:39;5.17;;;4.47;;
4268;SDS011;2148;48.554;7.834;2022-07-29T08:45:05;5.17;;;4.67;;
4268;SDS011;2148;48.554;7.834;2022-07-29T08:47:31;7.57;;;4.50;;
4268;SDS011;2148;48.554;7.834;2022-07-29T08:49:56;6.13;;;4.47;;
4268;SDS011;2148;48.554;7.834;2022-07-29T08:52:23;4.80;;;4.03;;
4268;SDS011;2148;48.554;7.834;2022-07-29T08:54:50;6.73;;;4.70;;
4268;SDS011;2148;48.554;7.834;2022-07-29T08:57:17;5.20;;;4.20;;
4268;SDS011;2148;48.554;7.834;2022-07-29T08:59:42;4.47;;;4.03;;
4268;SDS011;2148;48.554;7.834;2022-07-29T09:02:12;8.87;;;4.53;;
4268;SDS011;2148;48.554;7.834;2022-07-29T09:04:46;6.00;;;3.80;;
4268;SDS011;2148;48.554;7.834;2022-07-29T09:07:14;4.70;;;4.20;;
4268;SDS011;2148;48.554;7.834;2022-07-29T09:09:43;5.50;;;4.40;;
4268;SDS011;2148;48.554;7.834;2022-07-29T09:12:09;5.53;;;4.03;;
4268;SDS011;2148;48.554;7.834;2022-07-29T09:14:36;5.17;;;4.67;;
4268;SDS011;2148;48.554;7.834;2022-07-29T09:17:04;8.00;;;4.30;;
4268;SDS011;2148;48.554;7.834;2022-07-29T09:19:31;5.40;;;4.57;;
4268;SDS011;2148;48.554;7.834;2022-07-29T09:21:59;4.93;;;4.20;;
4268;SDS011;2148;48.554;7.834;2022-07-29T09:26:52;6.23;;;4.60;;
4268;SDS011;2148;48.554;7.834;2022-07-29T09:29:18;5.30;;;4.80;;
4268;SDS011;2148;48.554;7.834;2022-07-29T09:31:47;6.00;;;4.20;;
4268;SDS011;2148;48.554;7.834;2022-07-29T09:34:15;7.37;;;4.17;;
4268;SDS011;2148;48.554;7.834;2022-07-29T09:36:56;6.57;;;4.67;;
4268;SDS011;2148;48.554;7.834;2022-07-29T09:39:34;5.47;;;4.03;;
4268;SDS011;2148;48.554;7.834;2022-07-29T09:42:05;7.93;;;3.83;;
4268;SDS011;2148;48.554;7.834;2022-07-29T09:44:47;7.07;;;3.60;;
4268;SDS011;2148;48.554;7.834;2022-07-29T09:47:13;4.60;;;3.87;;
4268;SDS011;2148;48.554;7.834;2022-07-29T09:49:53;7.70;;;4.47;;
4268;SDS011;2148;48.554;7.834;2022-07-29T09:52:20;6.27;;;3.70;;
4268;SDS011;2148;48.554;7.834;2022-07-29T09:54:46;5.13;;;4.20;;
4268;SDS011;2148;48.554;7.834;2022-07-29T09:57:24;5.43;;;3.40;;
4268;SDS011;2148;48.554;7.834;2022-07-29T09:59:55;4.93;;;3.30;;
4268;SDS011;2148;48.554;7.834;2022-07-29T10:02:21;5.40;;;3.50;;
4268;SDS011;2148;48.554;7.834;2022-07-29T10:04:47;4.87;;;3.77;;
4268;SDS011;2148;48.554;7.834;2022-07-29T10:07:12;5.20;;;3.80;;
4268;SDS011;2148;48.554;7.834;2022-07-29T10:09:37;3.60;;;3.03;;
4268;SDS011;2148;48.554;7.834;2022-07-29T10:12:09;9.27;;;3.90;;
4268;SDS011;2148;48.554;7.834;2022-07-29T10:14:36;4.50;;;3.57;;
4268;SDS011;2148;48.554;7.834;2022-07-29T10:17:03;5.97;;;3.10;;
4268;SDS011;2148;48.554;7.834;2022-07-29T10:19:30;5.03;;;3.20;;
4268;SDS011;2148;48.554;7.834;2022-07-29T10:21:57;5.97;;;3.60;;
4268;SDS011;2148;48.554;7.834;2022-07-29T10:24:24;3.60;;;3.30;;
4268;SDS011;2148;48.554;7.834;2022-07-29T10:26:51;6.03;;;3.00;;
4268;SDS011;2148;48.554;7.834;2022-07-29T10:29:17;4.47;;;3.00;;
4268;SDS011;2148;48.554;7.834;2022-07-29T10:34:57;6.80;;;3.50;;
4268;SDS011;2148;48.554;7.834;2022-07-29T10:37:28;4.27;;;3.10;;
4268;SDS011;2148;48.554;7.834;2022-07-29T10:43:07;4.37;;;3.27;;
4268;SDS011;2148;48.554;7.834;2022-07-29T10:45:42;5.97;;;3.13;;
4268;SDS011;2148;48.554;7.834;2022-07-29T10:48:09;6.83;;;3.43;;
4268;SDS011;2148;48.554;7.834;2022-07-29T10:50:53;4.13;;;3.03;;
4268;SDS011;2148;48.554;7.834;2022-07-29T10:53:23;5.43;;;3.03;;
4268;SDS011;2148;48.554;7.834;2022-07-29T10:55:49;3.07;;;2.77;;
4268;SDS011;2148;48.554;7.834;2022-07-29T11:00:45;4.40;;;2.90;;
4268;SDS011;2148;48.554;7.834;2022-07-29T11:06:10;5.40;;;3.37;;
4268;SDS011;2148;48.554;7.834;2022-07-29T11:08:35;8.03;;;2.80;;
4268;SDS011;2148;48.554;7.834;2022-07-29T11:14:00;3.83;;;3.40;;
4268;SDS011;2148;48.554;7.834;2022-07-29T11:16:26;5.50;;;3.80;;
4268;SDS011;2148;48.554;7.834;2022-07-29T11:19:37;4.90;;;3.27;;
4268;SDS011;2148;48.554;7.834;2022-07-29T11:22:07;6.27;;;3.57;;
4268;SDS011;2148;48.554;7.834;2022-07-29T11:24:33;4.57;;;3.33;;
4268;SDS011;2148;48.554;7.834;2022-07-29T11:29:34;4.87;;;3.67;;
4268;SDS011;2148;48.554;7.834;2022-07-29T11:32:08;6.03;;;3.63;;
4268;SDS011;2148;48.554;7.834;2022-07-29T11:34:35;5.33;;;3.83;;
4268;SDS011;2148;48.554;7.834;2022-07-29T11:45:02;4.17;;;3.57;;
4268;SDS011;2148;48.554;7.834;2022-07-29T11:47:31;4.47;;;3.70;;
4268;SDS011;2148;48.554;7.834;2022-07-29T11:49:59;13.10;;;4.10;;
4268;SDS011;2148;48.554;7.834;2022-07-29T11:52:38;5.60;;;4.17;;
4268;SDS011;2148;48.554;7.834;2022-07-29T11:55:18;7.30;;;4.50;;
4268;SDS011;2148;48.554;7.834;2022-07-29T11:57:45;5.93;;;3.70;;
4268;SDS011;2148;48.554;7.834;2022-07-29T12:00:12;6.07;;;3.60;;
4268;SDS011;2148;48.554;7.834;2022-07-29T12:02:46;4.93;;;3.47;;
4268;SDS011;2148;48.554;7.834;2022-07-29T12:05:11;7.17;;;3.83;;
4268;SDS011;2148;48.554;7.834;2022-07-29T12:07:37;4.50;;;3.53;;
4268;SDS011;2148;48.554;7.834;2022-07-29T12:10:04;5.33;;;3.60;;
4268;SDS011;2148;48.554;7.834;2022-07-29T12:12:29;6.07;;;3.60;;
4268;SDS011;2148;48.554;7.834;2022-07-29T12:14:55;3.80;;;3.40;;
4268;SDS011;2148;48.554;7.834;2022-07-29T12:17:27;3.67;;;3.07;;
4268;SDS011;2148;48.554;7.834;2022-07-29T12:19:54;5.07;;;3.40;;
4268;SDS011;2148;48.554;7.834;2022-07-29T12:22:27;5.10;;;3.60;;
4268;SDS011;2148;48.554;7.834;2022-07-29T12:24:54;6.50;;;3.60;;
4268;SDS011;2148;48.554;7.834;2022-07-29T12:27:19;3.97;;;3.53;;
4268;SDS011;2148;48.554;7.834;2022-07-29T12:29:54;5.20;;;3.53;;
4268;SDS011;2148;48.554;7.834;2022-07-29T12:32:21;6.47;;;4.00;;
4268;SDS011;2148;48.554;7.834;2022-07-29T12:34:46;4.23;;;3.50;;
4268;SDS011;2148;48.554;7.834;2022-07-29T12:37:11;5.27;;;3.60;;
4268;SDS011;2148;48.554;7.834;2022-07-29T12:39:37;6.37;;;3.73;;
4268;SDS011;2148;48.554;7.834;2022-07-29T12:42:10;4.10;;;3.63;;
4268;SDS011;2148;48.554;7.834;2022-07-29T12:44:46;6.17;;;4.20;;
4268;SDS011;2148;48.554;7.834;2022-07-29T12:47:11;8.17;;;3.80;;
4268;SDS011;2148;48.554;7.834;2022-07-29T12:49:36;4.90;;;3.33;;
4268;SDS011;2148;48.554;7.834;2022-07-29T12:52:22;7.30;;;3.50;;
4268;SDS011;2148;48.554;7.834;2022-07-29T12:54:50;4.33;;;3.60;;
4268;SDS011;2148;48.554;7.834;2022-07-29T12:57:15;7.13;;;3.63;;
4268;SDS011;2148;48.554;7.834;2022-07-29T12:59:40;5.27;;;3.50;;
4268;SDS011;2148;48.554;7.834;2022-07-29T13:02:06;4.23;;;3.60;;
4268;SDS011;2148;48.554;7.834;2022-07-29T13:04:32;8.50;;;3.63;;
4268;SDS011;2148;48.554;7.834;2022-07-29T13:06:59;5.43;;;3.90;;
4268;SDS011;2148;48.554;7.834;2022-07-29T13:09:35;5.83;;;3.73;;
4268;SDS011;2148;48.554;7.834;2022-07-29T13:12:08;4.93;;;3.80;;
4268;SDS011;2148;48.554;7.834;2022-07-29T13:14:42;5.07;;;3.57;;
4268;SDS011;2148;48.554;7.834;2022-07-29T13:17:15;5.30;;;3.58;;
4268;SDS011;2148;48.554;7.834;2022-07-29T13:19:46;6.40;;;3.50;;
4268;SDS011;2148;48.554;7.834;2022-07-29T13:22:16;4.13;;;3.50;;
4268;SDS011;2148;48.554;7.834;2022-07-29T13:24:47;9.20;;;3.50;;
4268;SDS011;2148;48.554;7.834;2022-07-29T13:27:23;6.85;;;3.25;;
4268;SDS011;2148;48.554;7.834;2022-07-29T13:29:57;6.10;;;3.40;;
4268;SDS011;2148;48.554;7.834;2022-07-29T13:32:24;4.73;;;3.10;;
4268;SDS011;2148;48.554;7.834;2022-07-29T13:34:51;6.23;;;3.70;;
4268;SDS011;2148;48.554;7.834;2022-07-29T13:37:16;6.40;;;3.30;;
4268;SDS011;2148;48.554;7.834;2022-07-29T13:39:42;5.40;;;3.40;;
4268;SDS011;2148;48.554;7.834;2022-07-29T13:42:08;5.67;;;3.57;;
4268;SDS011;2148;48.554;7.834;2022-07-29T13:44:33;4.13;;;3.10;;
4268;SDS011;2148;48.554;7.834;2022-07-29T13:46:59;4.57;;;3.80;;
4268;SDS011;2148;48.554;7.834;2022-07-29T13:49:24;5.60;;;3.10;;
4268;SDS011;2148;48.554;7.834;2022-07-29T13:51:50;5.23;;;3.10;;
4268;SDS011;2148;48.554;7.834;2022-07-29T13:54:16;5.83;;;3.30;;
4268;SDS011;2148;48.554;7.834;2022-07-29T13:56:41;9.87;;;3.27;;
4268;SDS011;2148;48.554;7.834;2022-07-29T13:59:06;4.33;;;3.07;;
4268;SDS011;2148;48.554;7.834;2022-07-29T14:01:33;4.80;;;3.40;;
4268;SDS011;2148;48.554;7.834;2022-07-29T14:03:59;4.63;;;3.00;;
4268;SDS011;2148;48.554;7.834;2022-07-29T14:06:24;7.17;;;3.00;;
4268;SDS011;2148;48.554;7.834;2022-07-29T14:08:49;4.87;;;3.37;;
4268;SDS011;2148;48.554;7.834;2022-07-29T14:11:15;4.93;;;3.03;;
4268;SDS011;2148;48.554;7.834;2022-07-29T14:13:40;6.47;;;3.30;;
4268;SDS011;2148;48.554;7.834;2022-07-29T14:16:05;6.73;;;3.00;;
4268;SDS011;2148;48.554;7.834;2022-07-29T14:18:31;4.07;;;3.00;;
4268;SDS011;2148;48.554;7.834;2022-07-29T14:20:57;7.90;;;3.40;;
4268;SDS011;2148;48.554;7.834;2022-07-29T14:23:22;8.65;;;3.30;;
4268;SDS011;2148;48.554;7.834;2022-07-29T14:25:47;3.83;;;2.90;;
4268;SDS011;2148;48.554;7.834;2022-07-29T14:28:13;4.77;;;2.70;;
4268;SDS011;2148;48.554;7.834;2022-07-29T14:30:38;4.33;;;2.90;;
4268;SDS011;2148;48.554;7.834;2022-07-29T14:33:03;3.83;;;3.00;;
4268;SDS011;2148;48.554;7.834;2022-07-29T14:35:29;3.03;;;2.60;;
4268;SDS011;2148;48.554;7.834;2022-07-29T14:37:54;4.27;;;2.77;;
4268;SDS011;2148;48.554;7.834;2022-07-29T14:40:19;4.43;;;2.60;;
4268;SDS011;2148;48.554;7.834;2022-07-29T14:42:45;7.20;;;3.10;;
4268;SDS011;2148;48.554;7.834;2022-07-29T14:45:10;6.00;;;3.30;;
4268;SDS011;2148;48.554;7.834;2022-07-29T14:47:37;4.83;;;2.80;;
4268;SDS011;2148;48.554;7.834;2022-07-29T14:50:03;4.97;;;2.90;;
4268;SDS011;2148;48.554;7.834;2022-07-29T14:52:29;4.10;;;2.70;;
4268;SDS011;2148;48.554;7.834;2022-07-29T14:54:55;5.40;;;3.00;;
4268;SDS011;2148;48.554;7.834;2022-07-29T14:57:20;4.03;;;2.63;;
4268;SDS011;2148;48.554;7.834;2022-07-29T14:59:45;5.70;;;3.17;;
4268;SDS011;2148;48.554;7.834;2022-07-29T15:02:10;3.60;;;2.50;;
4268;SDS011;2148;48.554;7.834;2022-07-29T15:04:36;4.13;;;3.50;;
4268;SDS011;2148;48.554;7.834;2022-07-29T15:07:01;5.27;;;2.80;;
4268;SDS011;2148;48.554;7.834;2022-07-29T15:09:26;4.40;;;2.93;;
4268;SDS011;2148;48.554;7.834;2022-07-29T15:11:51;4.67;;;3.00;;
4268;SDS011;2148;48.554;7.834;2022-07-29T15:14:16;4.30;;;2.90;;
4268;SDS011;2148;48.554;7.834;2022-07-29T15:16:42;7.00;;;2.80;;
4268;SDS011;2148;48.554;7.834;2022-07-29T15:19:08;3.40;;;3.10;;
4268;SDS011;2148;48.554;7.834;2022-07-29T15:21:33;3.70;;;2.87;;
4268;SDS011;2148;48.554;7.834;2022-07-29T15:23:59;3.20;;;2.90;;
4268;SDS011;2148;48.554;7.834;2022-07-29T15:26:24;4.83;;;3.00;;
4268;SDS011;2148;48.554;7.834;2022-07-29T15:28:49;4.60;;;2.73;;
4268;SDS011;2148;48.554;7.834;2022-07-29T15:31:14;4.13;;;2.92;;
4268;SDS011;2148;48.554;7.834;2022-07-29T15:33:40;3.77;;;2.63;;
4268;SDS011;2148;48.554;7.834;2022-07-29T15:36:06;3.53;;;3.00;;
4268;SDS011;2148;48.554;7.834;2022-07-29T15:38:31;5.80;;;2.93;;
4268;SDS011;2148;48.554;7.834;2022-07-29T15:40:57;5.67;;;3.00;;
4268;SDS011;2148;48.554;7.834;2022-07-29T15:43:23;4.00;;;2.63;;
4268;SDS011;2148;48.554;7.834;2022-07-29T15:45:48;3.57;;;2.67;;
4268;SDS011;2148;48.554;7.834;2022-07-29T15:48:32;3.00;;;2.50;;
4268;SDS011;2148;48.554;7.834;2022-07-29T15:50:58;5.13;;;2.83;;
4268;SDS011;2148;48.554;7.834;2022-07-29T15:53:24;7.03;;;3.10;;
4268;SDS011;2148;48.554;7.834;2022-07-29T15:55:50;5.10;;;2.80;;